createdAt,value
2023-04-17T00:01:45.383Z,21.75
2023-04-17T00:04:13.227Z,21.60
2023-04-17T00:06:43.443Z,21.73
2023-04-17T00:09:14.122Z,22.15
2023-04-17T00:11:41.337Z,23.40
2023-04-17T00:14:08.212Z,23.67
2023-04-17T00:16:35.129Z,21.27
2023-04-17T00:19:02.261Z,24.35
2023-04-17T00:21:32.285Z,23.02
2023-04-17T00:23:59.236Z,25.63
2023-04-17T00:26:26.074Z,24.83
2023-04-17T00:28:52.975Z,22.67
2023-04-17T00:31:19.836Z,24.73
2023-04-17T00:33:46.878Z,22.73
2023-04-17T00:36:15.418Z,20.83
2023-04-17T00:38:42.802Z,24.23
2023-04-17T00:41:10.570Z,25.05
2023-04-17T00:43:38.751Z,24.80
2023-04-17T00:46:06.219Z,21.42
2023-04-17T00:48:35.464Z,21.92
2023-04-17T00:51:03.332Z,24.27
2023-04-17T00:53:31.606Z,21.45
2023-04-17T00:56:03.994Z,23.20
2023-04-17T00:58:31.550Z,21.63
2023-04-17T01:00:59.333Z,22.73
2023-04-17T01:03:26.706Z,24.45
2023-04-17T01:05:54.030Z,24.88
2023-04-17T01:08:21.436Z,21.33
2023-04-17T01:10:48.490Z,22.98
2023-04-17T01:13:15.764Z,23.77
2023-04-17T01:15:43.071Z,21.38
2023-04-17T01:18:10.258Z,24.02
2023-04-17T01:20:37.740Z,21.65
2023-04-17T01:23:04.928Z,21.80
2023-04-17T01:25:32.117Z,23.73
2023-04-17T01:27:59.436Z,21.98
2023-04-17T01:30:26.775Z,23.02
2023-04-17T01:32:55.635Z,25.08
2023-04-17T01:35:22.777Z,21.80
2023-04-17T01:37:49.768Z,21.45
2023-04-17T01:40:16.882Z,20.05
2023-04-17T01:42:43.948Z,22.88
2023-04-17T01:45:11.102Z,20.63
2023-04-17T01:47:38.097Z,22.10
2023-04-17T01:50:05.741Z,21.80
2023-04-17T01:52:32.714Z,22.15
2023-04-17T01:54:59.730Z,24.33
2023-04-17T01:57:28.158Z,20.15
2023-04-17T01:59:56.125Z,20.15
2023-04-17T02:02:23.250Z,22.75
2023-04-17T02:04:50.680Z,20.80
2023-04-17T02:07:17.561Z,24.58
2023-04-17T02:09:44.486Z,19.77
2023-04-17T02:12:11.431Z,21.70
2023-04-17T02:14:38.530Z,20.83
2023-04-17T02:17:05.901Z,22.48
2023-04-17T02:19:32.919Z,19.15
2023-04-17T02:21:59.802Z,21.00
2023-04-17T02:24:26.733Z,23.80
2023-04-17T02:26:54.323Z,20.73
2023-04-17T02:29:22.577Z,23.48
2023-04-17T02:31:49.667Z,21.55
2023-04-17T02:34:16.806Z,19.20
2023-04-17T02:36:43.920Z,21.55
2023-04-17T02:39:11.126Z,21.80
2023-04-17T02:41:38.352Z,20.65
2023-04-17T02:44:05.418Z,22.30
2023-04-17T02:46:32.391Z,21.23
2023-04-17T02:48:59.476Z,21.88
2023-04-17T02:51:26.768Z,19.67
2023-04-17T02:53:53.738Z,21.80
2023-04-17T02:56:20.976Z,21.90
2023-04-17T02:58:48.055Z,21.85
2023-04-17T03:01:15.051Z,22.90
2023-04-17T03:03:43.122Z,21.77
2023-04-17T03:06:10.363Z,23.48
2023-04-17T03:08:38.569Z,22.17
2023-04-17T03:11:06.566Z,22.88
2023-04-17T03:13:39.145Z,20.73
2023-04-17T03:16:06.693Z,22.90
2023-04-17T03:18:36.143Z,20.05
2023-04-17T03:21:03.086Z,21.15
2023-04-17T03:23:30.022Z,20.42
2023-04-17T03:25:57.136Z,20.35
2023-04-17T03:28:24.064Z,23.20
2023-04-17T03:30:51.809Z,21.23
2023-04-17T03:33:18.737Z,21.10
2023-04-17T03:35:46.568Z,21.25
2023-04-17T03:38:13.630Z,20.08
2023-04-17T03:40:41.028Z,21.25
2023-04-17T03:43:08.019Z,22.13
2023-04-17T03:45:35.194Z,20.17
2023-04-17T03:48:02.513Z,21.60
2023-04-17T03:50:29.732Z,20.38
2023-04-17T03:52:56.710Z,22.27
2023-04-17T03:55:23.789Z,21.08
2023-04-17T03:57:51.847Z,21.58
2023-04-17T04:00:19.235Z,22.55
2023-04-17T04:02:46.845Z,21.45
2023-04-17T04:05:14.467Z,20.77
2023-04-17T04:07:41.724Z,23.45
2023-04-17T04:10:09.146Z,21.92
2023-04-17T04:12:36.028Z,21.17
2023-04-17T04:15:03.045Z,25.38
2023-04-17T04:17:30.121Z,23.67
2023-04-17T04:19:57.053Z,24.23
2023-04-17T04:22:24.093Z,21.48
2023-04-17T04:24:53.633Z,24.80
2023-04-17T04:27:22.691Z,22.20
2023-04-17T04:29:49.814Z,22.90
2023-04-17T04:32:17.155Z,22.75
2023-04-17T04:34:44.707Z,21.92
2023-04-17T04:37:15.464Z,23.83
2023-04-17T04:39:43.220Z,23.13
2023-04-17T04:42:10.410Z,24.70
2023-04-17T04:44:37.634Z,27.30
2023-04-17T04:47:04.826Z,26.45
2023-04-17T04:49:31.891Z,23.42
2023-04-17T04:51:58.877Z,22.67
2023-04-17T04:54:25.850Z,23.15
2023-04-17T04:56:52.821Z,26.73
2023-04-17T04:59:19.840Z,26.30
2023-04-17T05:01:47.889Z,24.85
2023-04-17T05:04:15.283Z,25.08
2023-04-17T05:06:42.480Z,23.08
2023-04-17T05:09:09.675Z,23.67
2023-04-17T05:11:36.818Z,22.23
2023-04-17T05:14:03.778Z,22.90
2023-04-17T05:16:31.093Z,24.92
2023-04-17T05:18:58.043Z,24.42
2023-04-17T05:21:25.302Z,25.77
2023-04-17T05:23:52.240Z,22.90
2023-04-17T05:26:22.060Z,28.10
2023-04-17T05:28:49.334Z,28.15
2023-04-17T05:31:17.011Z,25.40
2023-04-17T05:33:44.122Z,25.30
2023-04-17T05:36:11.187Z,28.67
2023-04-17T05:38:38.108Z,24.73
2023-04-17T05:41:07.522Z,24.45
2023-04-17T05:43:35.152Z,24.75
2023-04-17T05:46:02.679Z,24.52
2023-04-17T05:48:30.231Z,25.27
2023-04-17T05:50:57.439Z,27.65
2023-04-17T05:53:24.336Z,25.20
2023-04-17T05:55:51.384Z,25.33
2023-04-17T05:58:23.748Z,26.95
2023-04-17T06:00:52.566Z,25.08
2023-04-17T06:03:20.863Z,23.85
2023-04-17T06:05:48.384Z,23.90
2023-04-17T06:08:15.588Z,26.25
2023-04-17T06:10:45.716Z,24.25
2023-04-17T06:13:12.800Z,25.30
2023-04-17T06:15:39.918Z,26.48
2023-04-17T06:18:06.811Z,25.65
2023-04-17T06:20:33.749Z,27.02
2023-04-17T06:23:01.335Z,23.88
2023-04-17T06:25:28.301Z,23.38
2023-04-17T06:27:55.458Z,25.15
2023-04-17T06:30:22.836Z,23.30
2023-04-17T06:32:49.902Z,25.08
2023-04-17T06:35:17.129Z,21.33
2023-04-17T06:37:44.055Z,24.48
2023-04-17T06:40:12.417Z,23.95
2023-04-17T06:42:39.571Z,23.92
2023-04-17T06:45:07.112Z,24.42
2023-04-17T06:47:34.106Z,21.35
2023-04-17T06:50:01.108Z,22.90
2023-04-17T06:52:28.065Z,22.50
2023-04-17T06:54:56.066Z,25.13
2023-04-17T06:57:23.152Z,24.00
2023-04-17T06:59:50.903Z,24.38
2023-04-17T07:02:18.096Z,23.05
2023-04-17T07:04:45.632Z,22.77
2023-04-17T07:07:12.577Z,22.73
2023-04-17T07:09:39.636Z,22.13
2023-04-17T07:12:07.044Z,21.08
2023-04-17T07:14:35.348Z,19.45
2023-04-17T07:17:02.707Z,19.23
2023-04-17T07:19:29.767Z,19.42
2023-04-17T07:21:57.041Z,18.35
2023-04-17T07:24:24.000Z,19.42
2023-04-17T07:26:51.247Z,18.50
2023-04-17T07:29:18.263Z,19.52
2023-04-17T07:31:45.800Z,18.65
2023-04-17T07:34:12.955Z,16.88
2023-04-17T07:36:39.962Z,17.73
2023-04-17T07:39:08.094Z,17.52
2023-04-17T07:41:35.058Z,16.80
2023-04-17T07:44:03.958Z,14.60
2023-04-17T07:46:31.171Z,17.58
2023-04-17T07:48:59.130Z,15.63
2023-04-17T07:51:26.284Z,17.52
2023-04-17T07:53:53.471Z,14.25
2023-04-17T07:56:20.463Z,16.52
2023-04-17T07:58:47.503Z,17.20
2023-04-17T08:01:15.053Z,15.68
2023-04-17T08:03:45.010Z,16.77
2023-04-17T08:06:12.213Z,13.85
2023-04-17T08:08:39.294Z,16.23
2023-04-17T08:11:06.350Z,15.52
2023-04-17T08:13:33.327Z,26.95
2023-04-17T08:16:00.234Z,21.65
2023-04-17T08:18:27.205Z,13.48
2023-04-17T08:20:54.240Z,12.13
2023-04-17T08:23:21.530Z,11.18
2023-04-17T08:25:48.509Z,11.15
2023-04-17T08:28:15.591Z,11.98
2023-04-17T08:30:42.615Z,11.60
2023-04-17T08:33:10.106Z,11.48
2023-04-17T08:35:37.131Z,12.18
2023-04-17T08:38:04.144Z,10.98
2023-04-17T08:40:31.578Z,9.30
2023-04-17T08:43:01.208Z,8.98
2023-04-17T08:45:28.292Z,11.07
2023-04-17T08:47:55.426Z,9.98
2023-04-17T08:50:22.687Z,9.73
2023-04-17T08:52:51.211Z,10.57
2023-04-17T08:55:21.478Z,11.70
2023-04-17T08:58:03.593Z,11.50
2023-04-17T09:00:35.830Z,9.98
2023-04-17T09:03:05.166Z,11.27
2023-04-17T09:05:38.677Z,10.10
2023-04-17T09:08:20.850Z,12.18
2023-04-17T09:10:52.913Z,10.15
2023-04-17T09:13:23.410Z,10.30
2023-04-17T09:16:08.184Z,11.23
2023-04-17T09:18:36.369Z,9.50
2023-04-17T09:21:04.646Z,9.45
2023-04-17T09:23:51.769Z,11.77
2023-04-17T09:26:27.084Z,8.60
2023-04-17T09:29:12.163Z,10.23
2023-04-17T09:31:41.414Z,9.48
2023-04-17T09:34:11.982Z,9.10
2023-04-17T09:36:43.566Z,12.88
2023-04-17T09:39:37.221Z,9.93
2023-04-17T09:42:06.431Z,8.77
2023-04-17T09:44:36.831Z,12.05
2023-04-17T09:47:05.172Z,10.57
2023-04-17T09:49:44.966Z,9.02
2023-04-17T09:52:13.173Z,8.40
2023-04-17T09:54:40.921Z,10.82
2023-04-17T09:57:08.868Z,9.43
2023-04-17T09:59:48.006Z,10.23
2023-04-17T10:02:17.641Z,10.07
2023-04-17T10:04:46.075Z,9.35
2023-04-17T10:07:14.012Z,8.38
2023-04-17T10:09:42.993Z,9.10
2023-04-17T10:12:18.610Z,7.65
2023-04-17T10:14:49.856Z,9.43
2023-04-17T10:17:34.893Z,8.38
2023-04-17T10:20:23.776Z,8.43
2023-04-17T10:22:56.869Z,9.15
2023-04-17T10:25:25.743Z,8.98
2023-04-17T10:27:58.287Z,10.45
2023-04-17T10:30:45.809Z,8.13
2023-04-17T10:33:13.021Z,8.65
2023-04-17T10:35:40.268Z,9.57
2023-04-17T10:38:08.437Z,8.95
2023-04-17T10:40:37.639Z,7.82
2023-04-17T10:43:23.377Z,10.10
2023-04-17T10:46:03.770Z,8.13
2023-04-17T10:48:40.881Z,7.60
2023-04-17T10:51:29.360Z,8.10
2023-04-17T10:53:56.370Z,6.38
2023-04-17T10:56:37.180Z,8.18
2023-04-17T10:59:09.276Z,6.45
2023-04-17T11:01:57.934Z,7.53
2023-04-17T11:04:29.276Z,6.95
2023-04-17T11:06:56.639Z,7.72
2023-04-17T11:09:26.591Z,7.72
2023-04-17T11:11:54.336Z,8.80
2023-04-17T11:14:23.050Z,8.57
2023-04-17T11:16:51.574Z,7.25
2023-04-17T11:19:23.749Z,7.05
2023-04-17T11:21:53.603Z,6.22
2023-04-17T11:24:28.287Z,5.32
2023-04-17T11:26:56.666Z,6.05
2023-04-17T11:29:25.462Z,4.18
2023-04-17T11:31:56.312Z,4.90
2023-04-17T11:34:25.983Z,4.75
2023-04-17T11:36:58.316Z,4.32
2023-04-17T11:39:28.011Z,4.32
2023-04-17T11:41:57.118Z,4.47
2023-04-17T11:44:25.323Z,4.72
2023-04-17T11:46:58.792Z,5.15
2023-04-17T11:49:38.099Z,6.27
2023-04-17T11:52:05.780Z,4.75
2023-04-17T11:54:38.148Z,5.25
2023-04-17T11:57:07.769Z,5.30
2023-04-17T11:59:39.265Z,5.38
2023-04-17T12:02:08.437Z,5.93
2023-04-17T12:04:36.908Z,5.78
2023-04-17T12:07:05.855Z,6.15
2023-04-17T12:09:34.214Z,6.10
2023-04-17T12:12:04.170Z,7.15
2023-04-17T12:14:32.071Z,8.40
2023-04-17T12:16:59.616Z,8.05
2023-04-17T12:19:31.716Z,7.28
2023-04-17T12:21:59.494Z,6.57
2023-04-17T12:24:27.349Z,6.68
2023-04-17T12:26:54.670Z,6.60
2023-04-17T12:29:32.749Z,6.07
2023-04-17T12:32:10.373Z,7.05
2023-04-17T12:34:37.752Z,5.72
2023-04-17T12:37:04.746Z,5.53
2023-04-17T12:39:32.838Z,5.72
2023-04-17T12:41:59.956Z,5.65
2023-04-17T12:44:27.193Z,7.68
2023-04-17T12:46:54.239Z,8.45
2023-04-17T12:49:23.635Z,4.68
2023-04-17T12:51:51.445Z,6.18
2023-04-17T12:54:19.200Z,7.30
2023-04-17T12:56:46.204Z,5.28
2023-04-17T12:59:13.525Z,5.13
2023-04-17T13:01:40.649Z,5.20
2023-04-17T13:04:07.991Z,6.47
2023-04-17T13:06:35.653Z,5.18
2023-04-17T13:09:02.774Z,5.35
2023-04-17T13:11:29.844Z,4.78
2023-04-17T13:13:56.839Z,4.93
2023-04-17T13:16:23.843Z,4.38
2023-04-17T13:18:50.967Z,5.38
2023-04-17T13:21:18.188Z,4.32
2023-04-17T13:23:45.056Z,4.30
2023-04-17T13:26:12.067Z,4.20
2023-04-17T13:28:39.909Z,3.58
2023-04-17T13:31:07.008Z,4.50
2023-04-17T13:33:34.226Z,3.65
2023-04-17T13:36:01.592Z,3.90
2023-04-17T13:38:30.433Z,4.50
2023-04-17T13:40:57.415Z,7.70
2023-04-17T13:43:24.511Z,4.35
2023-04-17T13:45:54.141Z,9.90
2023-04-17T13:48:22.510Z,4.72
2023-04-17T13:50:49.548Z,4.90
2023-04-17T13:53:16.648Z,4.03
2023-04-17T13:55:43.912Z,3.53
2023-04-17T13:58:11.167Z,4.70
2023-04-17T14:00:38.187Z,5.53
2023-04-17T14:03:05.604Z,2.38
2023-04-17T14:05:32.871Z,3.40
2023-04-17T14:07:59.968Z,2.53
2023-04-17T14:10:27.196Z,4.05
2023-04-17T14:12:54.400Z,2.58
2023-04-17T14:15:21.470Z,2.47
2023-04-17T14:17:48.625Z,2.42
2023-04-17T14:20:16.796Z,4.88
2023-04-17T14:22:43.860Z,5.65
2023-04-17T14:25:10.840Z,3.97
2023-04-17T14:27:37.777Z,4.88
2023-04-17T14:30:06.030Z,5.50
2023-04-17T14:32:33.213Z,4.80
2023-04-17T14:35:00.570Z,6.15
2023-04-17T14:37:28.538Z,7.15
2023-04-17T14:39:55.746Z,8.07
2023-04-17T14:42:22.714Z,5.63
2023-04-17T14:44:49.600Z,7.53
2023-04-17T14:47:16.756Z,7.20
2023-04-17T14:49:44.000Z,7.70
2023-04-17T14:52:11.146Z,5.93
2023-04-17T14:54:38.297Z,6.90
2023-04-17T14:57:05.701Z,3.85
2023-04-17T14:59:33.025Z,3.38
2023-04-17T15:02:00.606Z,3.58
2023-04-17T15:04:27.957Z,2.60
2023-04-17T15:06:55.071Z,2.60
2023-04-17T15:09:22.042Z,3.78
2023-04-17T15:11:49.020Z,4.15
2023-04-17T15:14:16.085Z,4.95
2023-04-17T15:16:42.994Z,4.85
2023-04-17T15:19:10.219Z,7.18
2023-04-17T15:21:37.352Z,6.03
2023-04-17T15:24:04.719Z,7.32
2023-04-17T15:26:33.180Z,7.00
2023-04-17T15:29:01.059Z,5.78
2023-04-17T15:31:28.168Z,5.47
2023-04-17T15:33:55.318Z,8.07
2023-04-17T15:36:22.389Z,7.03
2023-04-17T15:38:49.593Z,5.78
2023-04-17T15:41:16.619Z,5.80
2023-04-17T15:43:43.579Z,6.20
2023-04-17T15:46:10.684Z,7.28
2023-04-17T15:48:37.737Z,9.02
2023-04-17T15:51:04.977Z,10.52
2023-04-17T15:53:32.370Z,8.05
2023-04-17T15:55:59.354Z,7.47
2023-04-17T15:58:26.517Z,7.68
2023-04-17T16:00:53.646Z,9.20
2023-04-17T16:03:21.623Z,7.25
2023-04-17T16:05:48.847Z,7.60
2023-04-17T16:08:15.992Z,9.65
2023-04-17T16:10:43.118Z,7.55
2023-04-17T16:13:10.277Z,9.32
2023-04-17T16:15:37.526Z,9.98
2023-04-17T16:18:04.870Z,8.02
2023-04-17T16:20:31.980Z,8.07
2023-04-17T16:22:59.210Z,8.50
2023-04-17T16:25:26.489Z,7.45
2023-04-17T16:27:53.768Z,8.60
2023-04-17T16:30:21.220Z,8.57
2023-04-17T16:32:50.248Z,9.60
2023-04-17T16:35:17.361Z,8.52
2023-04-17T16:37:44.343Z,7.70
2023-04-17T16:40:12.613Z,7.43
2023-04-17T16:42:40.585Z,7.82
2023-04-17T16:45:07.903Z,6.95
2023-04-17T16:47:35.061Z,7.68
2023-04-17T16:50:02.290Z,7.75
2023-04-17T16:52:29.872Z,8.02
2023-04-17T16:54:56.893Z,7.40
2023-04-17T16:57:23.922Z,6.82
2023-04-17T16:59:50.897Z,7.05
2023-04-17T17:02:17.982Z,7.22
2023-04-17T17:04:45.885Z,8.75
2023-04-17T17:07:13.036Z,7.32
2023-04-17T17:09:40.134Z,9.77
2023-04-17T17:12:07.297Z,6.95
2023-04-17T17:14:34.465Z,6.95
2023-04-17T17:17:01.627Z,7.43
2023-04-17T17:19:28.826Z,7.25
2023-04-17T17:21:55.927Z,7.20
2023-04-17T17:24:23.300Z,6.80
2023-04-17T17:26:50.492Z,7.63
2023-04-17T17:29:17.752Z,8.52
2023-04-17T17:31:44.901Z,7.05
2023-04-17T17:34:25.271Z,5.75
2023-04-17T17:36:53.703Z,6.05
2023-04-17T17:39:22.303Z,6.03
2023-04-17T17:41:49.891Z,6.30
2023-04-17T17:44:17.443Z,5.53
2023-04-17T17:46:44.849Z,7.50
2023-04-17T17:49:12.353Z,5.85
2023-04-17T17:51:39.914Z,6.05
2023-04-17T17:54:07.571Z,5.50
2023-04-17T17:56:34.955Z,5.65
2023-04-17T17:59:02.101Z,8.18
2023-04-17T18:01:29.684Z,7.50
2023-04-17T18:03:57.248Z,5.38
2023-04-17T18:06:26.269Z,3.50
2023-04-17T18:08:53.681Z,3.10
2023-04-17T18:11:21.480Z,2.47
2023-04-17T18:13:49.042Z,2.22
2023-04-17T18:16:16.427Z,2.17
2023-04-17T18:18:43.821Z,2.58
2023-04-17T18:21:12.349Z,3.95
2023-04-17T18:23:39.621Z,2.70
2023-04-17T18:26:06.800Z,2.50
2023-04-17T18:28:34.362Z,2.85
2023-04-17T18:31:01.860Z,3.53
2023-04-17T18:33:28.983Z,3.60
2023-04-17T18:35:56.132Z,2.95
2023-04-17T18:38:23.324Z,3.15
2023-04-17T18:40:54.656Z,5.00
2023-04-17T18:43:21.883Z,5.25
2023-04-17T18:45:49.068Z,5.32
2023-04-17T18:48:15.947Z,5.00
2023-04-17T18:50:43.083Z,5.38
2023-04-17T18:53:10.344Z,6.43
2023-04-17T18:55:38.250Z,5.57
2023-04-17T18:58:06.504Z,5.45
2023-04-17T19:00:33.921Z,5.35
2023-04-17T19:03:01.070Z,8.15
2023-04-17T19:05:28.305Z,6.72
2023-04-17T19:07:55.895Z,7.15
2023-04-17T19:10:24.667Z,6.53
2023-04-17T19:12:51.677Z,6.05
2023-04-17T19:15:18.823Z,6.82
2023-04-17T19:17:46.062Z,6.30
2023-04-17T19:20:13.319Z,7.30
2023-04-17T19:22:40.639Z,6.50
2023-04-17T19:25:08.048Z,6.20
2023-04-17T19:27:35.204Z,7.47
2023-04-17T19:30:02.208Z,12.38
2023-04-17T19:32:31.520Z,7.60
2023-04-17T19:34:59.041Z,7.03
2023-04-17T19:37:26.227Z,8.05
2023-04-17T19:39:56.573Z,7.13
2023-04-17T19:42:24.279Z,9.55
2023-04-17T19:44:51.428Z,6.95
2023-04-17T19:47:18.482Z,8.05
2023-04-17T19:49:45.934Z,7.95
2023-04-17T19:52:12.961Z,7.72
2023-04-17T19:54:40.789Z,8.05
2023-04-17T19:57:07.762Z,8.23
2023-04-17T19:59:34.977Z,8.90
2023-04-17T20:02:02.341Z,9.82
2023-04-17T20:04:30.086Z,7.20
2023-04-17T20:06:57.816Z,8.35
2023-04-17T20:09:25.107Z,7.95
2023-04-17T20:11:52.301Z,8.30
2023-04-17T20:14:19.691Z,8.50
2023-04-17T20:16:50.014Z,7.00
2023-04-17T20:19:17.382Z,7.55
2023-04-17T20:21:44.501Z,6.93
2023-04-17T20:24:13.017Z,7.25
2023-04-17T20:26:40.257Z,8.90
2023-04-17T20:29:07.687Z,8.13
2023-04-17T20:31:36.533Z,8.55
2023-04-17T20:34:04.163Z,8.02
2023-04-17T20:36:31.463Z,7.95
2023-04-17T20:38:58.463Z,8.32
2023-04-17T20:41:25.974Z,7.80
2023-04-17T20:44:00.244Z,7.65
2023-04-17T20:46:28.465Z,6.38
2023-04-17T20:48:55.674Z,6.13
2023-04-17T20:51:27.365Z,5.90
2023-04-17T20:53:54.838Z,7.45
2023-04-17T20:56:22.157Z,6.93
2023-04-17T20:58:49.239Z,6.05
2023-04-17T21:01:16.740Z,6.43
2023-04-17T21:03:44.064Z,6.13
2023-04-17T21:06:11.256Z,6.28
2023-04-17T21:08:38.534Z,6.53
2023-04-17T21:11:05.585Z,6.40
2023-04-17T21:13:35.195Z,7.30
2023-04-17T21:16:02.269Z,6.47
2023-04-17T21:18:29.418Z,6.00
2023-04-17T21:20:56.364Z,6.97
2023-04-17T21:23:23.317Z,5.85
2023-04-17T21:25:51.854Z,5.75
2023-04-17T21:28:18.959Z,6.75
2023-04-17T21:30:46.643Z,5.93
2023-04-17T21:33:13.831Z,6.50
2023-04-17T21:35:40.822Z,7.93
2023-04-17T21:38:07.904Z,5.93
2023-04-17T21:40:36.992Z,5.80
2023-04-17T21:43:04.689Z,6.75
2023-04-17T21:45:32.423Z,7.20
2023-04-17T21:47:59.553Z,9.13
2023-04-17T21:50:26.578Z,6.60
2023-04-17T21:52:53.462Z,7.38
2023-04-17T21:55:20.507Z,7.75
2023-04-17T21:57:47.415Z,7.85
2023-04-17T22:00:14.736Z,7.43
2023-04-17T22:02:42.123Z,7.78
2023-04-17T22:05:09.606Z,7.95
2023-04-17T22:07:47.188Z,8.68
2023-04-17T22:10:14.752Z,8.43
2023-04-17T22:12:41.939Z,9.05
2023-04-17T22:15:09.431Z,8.73
2023-04-17T22:17:36.377Z,8.52
2023-04-17T22:20:03.932Z,9.88
2023-04-17T22:22:30.948Z,13.88
2023-04-17T22:24:57.909Z,11.10
2023-04-17T22:27:24.948Z,11.52
2023-04-17T22:29:51.862Z,10.88
2023-04-17T22:32:19.020Z,13.10
2023-04-17T22:34:49.635Z,12.82
2023-04-17T22:37:16.499Z,12.82
2023-04-17T22:39:43.334Z,13.95
2023-04-17T22:42:10.182Z,12.57
2023-04-17T22:44:37.069Z,13.93
2023-04-17T22:47:04.153Z,15.40
2023-04-17T22:49:32.514Z,14.85
2023-04-17T22:51:59.566Z,14.43
2023-04-17T22:54:26.484Z,12.48
2023-04-17T22:56:53.446Z,15.10
2023-04-17T22:59:20.637Z,15.05
2023-04-17T23:01:47.973Z,16.95
2023-04-17T23:04:15.619Z,16.38
2023-04-17T23:06:42.895Z,16.48
2023-04-17T23:09:10.306Z,17.17
2023-04-17T23:11:37.283Z,16.15
2023-04-17T23:14:04.469Z,17.38
2023-04-17T23:16:31.727Z,17.63
2023-04-17T23:18:58.913Z,16.48
2023-04-17T23:21:26.177Z,18.52
2023-04-17T23:23:53.261Z,19.02
2023-04-17T23:26:20.311Z,18.80
2023-04-17T23:28:47.903Z,19.52
2023-04-17T23:31:14.954Z,20.33
2023-04-17T23:33:42.000Z,20.33
2023-04-17T23:36:08.973Z,20.08
2023-04-17T23:38:35.834Z,20.05
2023-04-17T23:41:02.669Z,20.00
2023-04-17T23:43:29.820Z,21.42
2023-04-17T23:45:57.850Z,19.63
2023-04-17T23:48:25.138Z,21.73
2023-04-17T23:50:52.580Z,19.38
2023-04-17T23:53:19.988Z,20.65
2023-04-17T23:55:47.096Z,22.80
2023-04-17T23:58:14.861Z,21.63
